Time;durP1;ratioP1;P1;durP2;ratioP2;P2;SDS_P1;SDS_P2;PMS_P1;PMS_P2;Temp;Humidity;BMP_temperature;BMP_pressure;BME280_temperature;BME280_humidity;BME280_pressure;Samples;Min_cycle;Max_cycle;Signal;HPM_P1;HPM_P2
2023/08/18 00:01:40;;;;;;;18.70;13.10;;;;;;;;;;5132094;27;20027;-71
2023/08/18 00:04:06;;;;;;;26.05;12.98;;;;;;;;;;5132335;27;20064;-71
2023/08/18 00:06:32;;;;;;;20.88;13.07;;;;;;;;;;5132016;27;20034;-71
2023/08/18 00:08:58;;;;;;;27.45;13.32;;;;;;;;;;5131942;27;20035;-71
2023/08/18 00:11:24;;;;;;;14.88;12.40;;;;;;;;;;5132261;27;20065;-70
2023/08/18 00:13:50;;;;;;;18.17;12.82;;;;;;;;;;5131660;27;20169;-69
2023/08/18 00:16:16;;;;;;;16.83;11.82;;;;;;;;;;5131957;27;20039;-70
2023/08/18 00:18:42;;;;;;;22.38;13.77;;;;;;;;;;5131776;27;20035;-70
2023/08/18 00:21:08;;;;;;;25.58;13.82;;;;;;;;;;5132440;27;20037;-70
2023/08/18 00:23:35;;;;;;;15.93;12.15;;;;;;;;;;5134561;27;20042;-70
2023/08/18 00:26:01;;;;;;;23.63;12.35;;;;;;;;;;5135873;27;20496;-70
2023/08/18 00:28:27;;;;;;;23.85;12.45;;;;;;;;;;5115487;27;20031;-71
2023/08/18 00:30:53;;;;;;;22.52;13.95;;;;;;;;;;5131689;27;20444;-71
2023/08/18 00:33:20;;;;;;;29.88;14.00;;;;;;;;;;5131851;27;20550;-71
2023/08/18 00:35:46;;;;;;;20.70;13.20;;;;;;;;;;5131443;27;20043;-72
2023/08/18 00:38:12;;;;;;;23.23;12.98;;;;;;;;;;5131685;27;21043;-70
2023/08/18 00:40:39;;;;;;;20.50;13.57;;;;;;;;;;5113236;27;20043;-71
2023/08/18 00:43:05;;;;;;;25.45;12.70;;;;;;;;;;5131547;27;20039;-68
2023/08/18 00:45:31;;;;;;;30.67;15.05;;;;;;;;;;5113058;27;20039;-71
2023/08/18 00:47:57;;;;;;;20.80;13.40;;;;;;;;;;5095793;27;20035;-71
2023/08/18 00:50:25;;;;;;;18.83;11.50;;;;;;;;;;5131265;27;20059;-71
2023/08/18 00:52:58;;;;;;;16.77;11.40;;;;;;;;;;5096009;27;20054;-70
2023/08/18 00:55:28;;;;;;;20.77;12.07;;;;;;;;;;5113790;27;20050;-71
2023/08/18 00:57:54;;;;;;;18.48;12.00;;;;;;;;;;5131107;27;20041;-70
2023/08/18 01:00:23;;;;;;;25.40;12.25;;;;;;;;;;5096113;27;20038;-70
2023/08/18 01:02:50;;;;;;;23.88;12.02;;;;;;;;;;5130963;27;20509;-71
2023/08/18 01:05:16;;;;;;;20.17;11.85;;;;;;;;;;5112900;28;20047;-71
2023/08/18 01:07:42;;;;;;;16.35;11.57;;;;;;;;;;5112825;27;20413;-70
2023/08/18 01:10:09;;;;;;;20.17;13.45;;;;;;;;;;5131085;27;20122;-71
2023/08/18 01:12:42;;;;;;;25.15;12.65;;;;;;;;;;5112826;27;20054;-71
2023/08/18 01:15:15;;;;;;;20.55;11.65;;;;;;;;;;5112482;27;20067;-70
2023/08/18 01:18:04;;;;;;;19.48;12.18;;;;;;;;;;5131251;27;20035;-71
2023/08/18 01:20:30;;;;;;;22.45;12.05;;;;;;;;;;5131613;27;20058;-70
2023/08/18 01:22:56;;;;;;;28.23;12.73;;;;;;;;;;5080724;27;20050;-70
2023/08/18 01:25:22;;;;;;;37.03;13.45;;;;;;;;;;5131916;27;20479;-70
2023/08/18 01:27:48;;;;;;;62.85;22.35;;;;;;;;;;5112480;27;20114;-69
2023/08/18 01:30:14;;;;;;;55.15;16.33;;;;;;;;;;5130899;27;20125;-70
2023/08/18 01:32:42;;;;;;;46.58;14.07;;;;;;;;;;5112688;28;20033;-72
2023/08/18 01:35:08;;;;;;;55.55;22.13;;;;;;;;;;5130587;27;20043;-70
2023/08/18 01:37:35;;;;;;;46.40;20.73;;;;;;;;;;5130887;27;20086;-70
2023/08/18 01:40:03;;;;;;;35.45;18.67;;;;;;;;;;5112332;27;20536;-70
2023/08/18 01:42:29;;;;;;;25.85;12.68;;;;;;;;;;5130798;27;20035;-71
2023/08/18 01:45:02;;;;;;;39.17;13.95;;;;;;;;;;5130346;27;20064;-70
2023/08/18 01:47:32;;;;;;;28.42;11.63;;;;;;;;;;5130888;27;20031;-70
2023/08/18 01:49:58;;;;;;;32.00;12.98;;;;;;;;;;5130452;27;20087;-70
2023/08/18 01:52:24;;;;;;;22.08;12.98;;;;;;;;;;5130903;27;20035;-70
2023/08/18 01:54:50;;;;;;;22.75;13.00;;;;;;;;;;5130222;27;20046;-71
2023/08/18 01:57:17;;;;;;;27.50;12.23;;;;;;;;;;5131383;27;20447;-70
2023/08/18 01:59:43;;;;;;;22.40;11.95;;;;;;;;;;5116200;27;20035;-71
2023/08/18 02:02:10;;;;;;;31.23;13.02;;;;;;;;;;5116551;27;20039;-72
2023/08/18 02:04:38;;;;;;;20.05;12.95;;;;;;;;;;5116295;27;20497;-70
2023/08/18 02:07:05;;;;;;;29.65;12.95;;;;;;;;;;5115997;27;20031;-71
2023/08/18 02:09:31;;;;;;;26.50;12.55;;;;;;;;;;5099441;27;20035;-71
2023/08/18 02:11:58;;;;;;;22.08;12.20;;;;;;;;;;5098811;27;20031;-70
2023/08/18 02:14:24;;;;;;;31.00;12.82;;;;;;;;;;5134265;27;20554;-71
2023/08/18 02:16:51;;;;;;;30.77;13.88;;;;;;;;;;5115855;27;20035;-71
2023/08/18 02:19:17;;;;;;;30.25;14.90;;;;;;;;;;5134451;27;20457;-71
2023/08/18 02:21:43;;;;;;;29.20;15.50;;;;;;;;;;5134078;27;20071;-70
2023/08/18 02:24:10;;;;;;;35.45;16.13;;;;;;;;;;5115806;27;20053;-71
2023/08/18 02:26:37;;;;;;;34.80;16.13;;;;;;;;;;5134057;27;20031;-70
2023/08/18 02:29:03;;;;;;;36.80;15.90;;;;;;;;;;5115533;27;20121;-70
2023/08/18 02:31:29;;;;;;;32.80;13.38;;;;;;;;;;5115863;27;20072;-71
2023/08/18 02:33:55;;;;;;;35.60;16.15;;;;;;;;;;5133724;27;20079;-71
2023/08/18 02:36:21;;;;;;;19.48;11.82;;;;;;;;;;5115631;27;20122;-70
2023/08/18 02:38:49;;;;;;;40.60;13.90;;;;;;;;;;5115167;27;20190;-70
2023/08/18 02:41:17;;;;;;;22.60;12.23;;;;;;;;;;5115724;27;20039;-70
2023/08/18 02:43:44;;;;;;;34.85;12.68;;;;;;;;;;5115778;27;20106;-70
2023/08/18 02:46:10;;;;;;;27.55;12.55;;;;;;;;;;5135282;27;20035;-71
2023/08/18 02:48:36;;;;;;;21.40;11.77;;;;;;;;;;5137525;27;20035;-70
2023/08/18 02:51:08;;;;;;;30.05;12.57;;;;;;;;;;5138555;27;20038;-71
2023/08/18 02:53:34;;;;;;;26.33;13.00;;;;;;;;;;5116586;27;20544;-70
2023/08/18 02:56:01;;;;;;;30.58;13.32;;;;;;;;;;5133285;27;20087;-71
2023/08/18 02:58:28;;;;;;;43.63;14.35;;;;;;;;;;5115466;27;20370;-71
2023/08/18 03:01:03;;;;;;;22.45;13.70;;;;;;;;;;5133179;27;20089;-70
2023/08/18 03:03:32;;;;;;;34.88;14.20;;;;;;;;;;5115921;27;20035;-70
2023/08/18 03:05:58;;;;;;;28.55;14.27;;;;;;;;;;5133094;27;20409;-70
2023/08/18 03:08:24;;;;;;;25.92;12.30;;;;;;;;;;5133476;27;20076;-70
2023/08/18 03:10:57;;;;;;;20.23;12.73;;;;;;;;;;5132461;27;20067;-71
2023/08/18 03:13:23;;;;;;;31.80;13.75;;;;;;;;;;5114731;27;20047;-71
2023/08/18 03:15:49;;;;;;;28.58;12.57;;;;;;;;;;5133054;27;20035;-69
2023/08/18 03:18:16;;;;;;;22.63;11.23;;;;;;;;;;5133203;27;20440;-70
2023/08/18 03:20:45;;;;;;;28.67;12.02;;;;;;;;;;5114712;27;20085;-69
2023/08/18 03:23:13;;;;;;;24.33;12.23;;;;;;;;;;5132828;27;20037;-71
2023/08/18 03:25:39;;;;;;;27.98;12.30;;;;;;;;;;5097918;27;20105;-71
2023/08/18 03:28:05;;;;;;;23.35;11.13;;;;;;;;;;5133078;27;20067;-71
2023/08/18 03:30:31;;;;;;;24.67;11.45;;;;;;;;;;5136205;27;20110;-71
2023/08/18 03:32:57;;;;;;;28.13;12.50;;;;;;;;;;5137378;27;20571;-71
2023/08/18 03:35:23;;;;;;;33.90;12.63;;;;;;;;;;5134291;27;20524;-71
2023/08/18 03:37:49;;;;;;;23.30;12.27;;;;;;;;;;5114521;27;20085;-70
2023/08/18 03:40:15;;;;;;;35.08;12.02;;;;;;;;;;5132453;27;20101;-73
2023/08/18 03:42:41;;;;;;;23.80;12.20;;;;;;;;;;5097398;27;20035;-70
2023/08/18 03:45:07;;;;;;;31.38;11.15;;;;;;;;;;5114307;27;20027;-71
2023/08/18 03:47:34;;;;;;;23.35;11.00;;;;;;;;;;5114418;27;20082;-70
2023/08/18 03:50:00;;;;;;;24.23;11.00;;;;;;;;;;5132364;27;20501;-70
2023/08/18 03:52:26;;;;;;;34.95;11.15;;;;;;;;;;5114191;27;20041;-71
2023/08/18 03:54:52;;;;;;;29.17;11.38;;;;;;;;;;5113837;27;20117;-70
2023/08/18 03:57:18;;;;;;;26.90;11.10;;;;;;;;;;5113921;27;20091;-71
2023/08/18 03:59:45;;;;;;;23.27;10.70;;;;;;;;;;5132225;27;20087;-72
2023/08/18 04:02:11;;;;;;;25.15;10.93;;;;;;;;;;5113691;27;20485;-70
2023/08/18 04:04:37;;;;;;;32.10;11.90;;;;;;;;;;5132356;27;20042;-71
2023/08/18 04:07:03;;;;;;;22.90;11.18;;;;;;;;;;5131904;27;20122;-71
2023/08/18 04:09:29;;;;;;;25.42;12.10;;;;;;;;;;5132219;27;20035;-68
2023/08/18 04:11:55;;;;;;;26.30;12.65;;;;;;;;;;5131709;27;20027;-70
2023/08/18 04:14:21;;;;;;;22.85;12.80;;;;;;;;;;5131817;27;20051;-72
2023/08/18 04:16:47;;;;;;;18.77;13.43;;;;;;;;;;5113398;27;20035;-72
2023/08/18 04:19:13;;;;;;;20.02;11.57;;;;;;;;;;5113267;27;20039;-72
2023/08/18 04:21:40;;;;;;;26.50;12.90;;;;;;;;;;5112739;27;20031;-70
2023/08/18 04:24:07;;;;;;;18.08;12.60;;;;;;;;;;5113433;27;20039;-70
2023/08/18 04:26:36;;;;;;;23.42;12.95;;;;;;;;;;5113397;27;20038;-70
2023/08/18 04:29:02;;;;;;;22.95;11.98;;;;;;;;;;5113384;27;20038;-70
2023/08/18 04:31:29;;;;;;;31.35;12.45;;;;;;;;;;5113346;27;20042;-72
2023/08/18 04:33:59;;;;;;;22.55;13.10;;;;;;;;;;5113207;27;20078;-71
2023/08/18 04:36:27;;;;;;;23.00;12.65;;;;;;;;;;5113213;27;20027;-72
2023/08/18 04:38:54;;;;;;;29.42;12.65;;;;;;;;;;5113004;27;20023;-70
2023/08/18 04:41:25;;;;;;;29.10;13.05;;;;;;;;;;5112789;27;20038;-71
2023/08/18 04:43:52;;;;;;;20.63;11.77;;;;;;;;;;5095800;27;20413;-70
2023/08/18 04:46:21;;;;;;;24.67;13.18;;;;;;;;;;5112843;27;20430;-72
2023/08/18 04:48:47;;;;;;;27.98;12.00;;;;;;;;;;5112634;27;20185;-71
2023/08/18 04:51:14;;;;;;;23.38;12.88;;;;;;;;;;5112180;27;20075;-71
2023/08/18 04:53:41;;;;;;;20.77;12.88;;;;;;;;;;5112955;27;20130;-70
2023/08/18 04:56:09;;;;;;;27.88;12.48;;;;;;;;;;5112548;27;20037;-71
2023/08/18 04:58:35;;;;;;;22.50;12.40;;;;;;;;;;5112989;27;20031;-70
2023/08/18 05:01:02;;;;;;;20.75;12.43;;;;;;;;;;5112524;27;20121;-71
2023/08/18 05:03:28;;;;;;;21.67;12.55;;;;;;;;;;5131059;27;20505;-71
2023/08/18 05:06:07;;;;;;;19.98;12.00;;;;;;;;;;5112646;27;20031;-71
2023/08/18 05:08:35;;;;;;;20.92;11.82;;;;;;;;;;5113193;27;20417;-71
2023/08/18 05:11:05;;;;;;;18.67;13.20;;;;;;;;;;5130845;27;20031;-72
2023/08/18 05:13:31;;;;;;;21.67;12.30;;;;;;;;;;5130676;27;20047;-70
2023/08/18 05:15:59;;;;;;;34.20;13.40;;;;;;;;;;5130984;27;20531;-71
2023/08/18 05:18:25;;;;;;;29.75;13.98;;;;;;;;;;5131115;27;20132;-71
2023/08/18 05:20:51;;;;;;;31.05;13.73;;;;;;;;;;5130818;27;20035;-71
2023/08/18 05:23:18;;;;;;;33.28;14.07;;;;;;;;;;5130740;27;20050;-71
2023/08/18 05:25:45;;;;;;;32.17;14.80;;;;;;;;;;5112344;27;20484;-71
2023/08/18 05:28:11;;;;;;;35.70;14.52;;;;;;;;;;5130605;27;20031;-71
2023/08/18 05:30:38;;;;;;;31.85;14.32;;;;;;;;;;5130781;27;20042;-71
2023/08/18 05:33:04;;;;;;;35.70;15.63;;;;;;;;;;5132775;27;20038;-70
2023/08/18 05:35:31;;;;;;;39.97;18.92;;;;;;;;;;5135136;27;20117;-72
2023/08/18 05:37:57;;;;;;;34.00;17.40;;;;;;;;;;5134919;27;20496;-73
2023/08/18 05:40:22;;;;;;;36.22;19.95;;;;;;;;;;5135109;27;20057;-70
2023/08/18 05:42:49;;;;;;;33.50;18.23;;;;;;;;;;5136306;27;20044;-72
2023/08/18 05:45:15;;;;;;;34.83;17.88;;;;;;;;;;5136921;27;20031;-70
2023/08/18 05:47:41;;;;;;;40.08;18.15;;;;;;;;;;5135315;27;20035;-71
2023/08/18 05:50:08;;;;;;;37.35;15.63;;;;;;;;;;5134626;27;20035;-71
2023/08/18 05:52:34;;;;;;;33.22;16.10;;;;;;;;;;5134630;27;20057;-71
2023/08/18 05:55:00;;;;;;;28.30;15.77;;;;;;;;;;5116090;27;20046;-71
2023/08/18 05:57:26;;;;;;;39.88;15.57;;;;;;;;;;5134819;27;20035;-72
2023/08/18 05:59:52;;;;;;;33.25;15.75;;;;;;;;;;5134809;27;20083;-71
2023/08/18 06:02:18;;;;;;;34.35;14.77;;;;;;;;;;5134244;27;20055;-72
2023/08/18 06:04:44;;;;;;;26.67;15.38;;;;;;;;;;5134644;27;20149;-71
2023/08/18 06:07:11;;;;;;;32.38;14.60;;;;;;;;;;5116018;27;20028;-71
2023/08/18 06:09:38;;;;;;;35.15;14.70;;;;;;;;;;5134857;27;20042;-71
2023/08/18 06:12:04;;;;;;;38.88;15.60;;;;;;;;;;5115878;27;20122;-72
2023/08/18 06:14:30;;;;;;;32.20;14.82;;;;;;;;;;5134317;27;20054;-68
2023/08/18 06:16:56;;;;;;;33.38;15.38;;;;;;;;;;5134315;27;20031;-71
2023/08/18 06:19:22;;;;;;;33.15;14.70;;;;;;;;;;5134153;27;20027;-71
2023/08/18 06:21:48;;;;;;;30.65;13.70;;;;;;;;;;5134115;27;20058;-71
2023/08/18 06:24:14;;;;;;;22.92;13.88;;;;;;;;;;5134149;27;20096;-72
2023/08/18 06:26:40;;;;;;;33.20;13.00;;;;;;;;;;5134223;27;20027;-71
2023/08/18 06:29:06;;;;;;;42.67;13.48;;;;;;;;;;5115841;27;20035;-72
2023/08/18 06:31:32;;;;;;;34.58;12.95;;;;;;;;;;5134383;27;20049;-71
2023/08/18 06:33:58;;;;;;;29.55;13.23;;;;;;;;;;5135391;27;20092;-72
2023/08/18 06:36:24;;;;;;;31.42;13.25;;;;;;;;;;5135403;27;20529;-73
2023/08/18 06:38:50;;;;;;;29.75;12.07;;;;;;;;;;5135028;27;20122;-72
2023/08/18 06:41:16;;;;;;;28.40;13.02;;;;;;;;;;5133645;27;20114;-71
2023/08/18 06:43:42;;;;;;;28.58;11.43;;;;;;;;;;5133267;27;20080;-72
2023/08/18 06:46:07;;;;;;;21.83;11.98;;;;;;;;;;5133188;27;20031;-71
2023/08/18 06:48:33;;;;;;;26.15;12.40;;;;;;;;;;5133813;27;20465;-73
2023/08/18 06:50:59;;;;;;;30.02;11.85;;;;;;;;;;5133614;27;20954;-71
2023/08/18 06:53:27;;;;;;;30.38;11.05;;;;;;;;;;5133436;27;20035;-71
2023/08/18 06:55:55;;;;;;;32.80;11.13;;;;;;;;;;5133493;27;20047;-71
2023/08/18 06:58:21;;;;;;;33.53;10.82;;;;;;;;;;5133349;27;20121;-71
2023/08/18 07:00:47;;;;;;;25.50;11.05;;;;;;;;;;5133481;27;20119;-72
2023/08/18 07:03:13;;;;;;;31.58;10.38;;;;;;;;;;5133317;27;20118;-71
2023/08/18 07:05:39;;;;;;;23.30;9.45;;;;;;;;;;5133557;27;20071;-71
2023/08/18 07:08:05;;;;;;;20.10;9.40;;;;;;;;;;5115210;27;20405;-72
2023/08/18 07:10:31;;;;;;;27.55;10.13;;;;;;;;;;5133355;27;20117;-72
2023/08/18 07:12:57;;;;;;;26.15;9.30;;;;;;;;;;5132946;27;20711;-72
2023/08/18 07:15:23;;;;;;;16.55;9.25;;;;;;;;;;5132776;27;20050;-71
2023/08/18 07:17:49;;;;;;;19.45;9.93;;;;;;;;;;5132983;27;20058;-73
2023/08/18 07:20:16;;;;;;;21.67;9.18;;;;;;;;;;5132955;27;20076;-72
2023/08/18 07:22:41;;;;;;;15.48;8.95;;;;;;;;;;5133098;27;20043;-71
2023/08/18 07:25:10;;;;;;;23.40;9.88;;;;;;;;;;5132812;27;20046;-71
2023/08/18 07:27:36;;;;;;;23.08;9.35;;;;;;;;;;5133002;27;20031;-71
2023/08/18 07:30:04;;;;;;;17.27;9.35;;;;;;;;;;5133170;27;20039;-72
2023/08/18 07:32:31;;;;;;;14.55;8.13;;;;;;;;;;5133088;27;20031;-76
2023/08/18 07:34:57;;;;;;;20.55;8.52;;;;;;;;;;5132720;27;20066;-72
2023/08/18 07:37:23;;;;;;;15.52;8.18;;;;;;;;;;5132417;27;20023;-73
2023/08/18 07:39:49;;;;;;;18.08;8.55;;;;;;;;;;5132655;27;20095;-72
2023/08/18 07:42:15;;;;;;;17.92;8.25;;;;;;;;;;5132435;27;20078;-73
2023/08/18 07:44:41;;;;;;;20.90;8.85;;;;;;;;;;5132642;27;20458;-72
2023/08/18 07:47:07;;;;;;;14.68;8.57;;;;;;;;;;5132682;27;20038;-70
2023/08/18 07:49:33;;;;;;;13.60;7.40;;;;;;;;;;5132631;27;20031;-72
2023/08/18 07:52:00;;;;;;;21.98;8.30;;;;;;;;;;5132189;27;20088;-71
2023/08/18 07:54:25;;;;;;;21.27;9.13;;;;;;;;;;5132034;27;20038;-72
2023/08/18 07:56:52;;;;;;;14.25;7.95;;;;;;;;;;5131080;27;20035;-72
2023/08/18 07:59:18;;;;;;;24.20;11.13;;;;;;;;;;5113903;27;20122;-72
2023/08/18 08:01:44;;;;;;;18.85;10.63;;;;;;;;;;5132102;27;20305;-71
2023/08/18 08:04:10;;;;;;;20.23;10.40;;;;;;;;;;5113682;27;20684;-71
2023/08/18 08:06:36;;;;;;;21.35;10.68;;;;;;;;;;5114074;27;20031;-71
2023/08/18 08:09:03;;;;;;;19.17;10.60;;;;;;;;;;5132192;27;20087;-72
2023/08/18 08:11:29;;;;;;;16.35;11.85;;;;;;;;;;5131871;27;20126;-71
2023/08/18 08:13:55;;;;;;;20.60;10.57;;;;;;;;;;5131730;27;20553;-72
2023/08/18 08:16:21;;;;;;;22.20;9.88;;;;;;;;;;5131696;27;20497;-71
2023/08/18 08:18:47;;;;;;;14.00;8.50;;;;;;;;;;5132077;27;20053;-71
2023/08/18 08:21:13;;;;;;;9.80;5.93;;;;;;;;;;5113554;27;20512;-71
2023/08/18 08:23:39;;;;;;;10.05;5.82;;;;;;;;;;5132787;27;20459;-72
2023/08/18 08:26:05;;;;;;;9.50;6.90;;;;;;;;;;5133139;27;20401;-73
2023/08/18 08:28:31;;;;;;;15.20;8.20;;;;;;;;;;5132357;27;20033;-71
2023/08/18 08:30:57;;;;;;;10.52;7.65;;;;;;;;;;5132660;27;20054;-72
2023/08/18 08:33:23;;;;;;;16.17;7.47;;;;;;;;;;5113551;27;20034;-72
2023/08/18 08:35:49;;;;;;;10.45;6.95;;;;;;;;;;5132740;27;20477;-73
2023/08/18 08:38:16;;;;;;;10.30;6.50;;;;;;;;;;5134459;27;20027;-73
2023/08/18 08:40:43;;;;;;;10.73;6.50;;;;;;;;;;5132615;27;20046;-71
2023/08/18 08:43:09;;;;;;;9.02;6.10;;;;;;;;;;5131855;27;20039;-72
2023/08/18 08:45:35;;;;;;;9.20;6.22;;;;;;;;;;5113070;27;20035;-72
2023/08/18 08:48:05;;;;;;;15.73;6.63;;;;;;;;;;5131416;27;20027;-73
2023/08/18 08:50:32;;;;;;;9.38;5.70;;;;;;;;;;5131305;27;20035;-71
2023/08/18 08:52:58;;;;;;;11.93;6.30;;;;;;;;;;5131550;27;20513;-72
2023/08/18 08:55:24;;;;;;;9.85;6.22;;;;;;;;;;5131201;27;20136;-72
2023/08/18 08:57:51;;;;;;;13.27;5.95;;;;;;;;;;5113523;27;20031;-74
2023/08/18 09:00:17;;;;;;;9.25;5.40;;;;;;;;;;5131523;27;20034;-73
2023/08/18 09:02:45;;;;;;;9.48;5.63;;;;;;;;;;5131415;27;20100;-73
2023/08/18 09:05:11;;;;;;;12.27;5.50;;;;;;;;;;5113828;27;20038;-69
2023/08/18 09:07:37;;;;;;;11.20;5.85;;;;;;;;;;5131047;27;20047;-71
2023/08/18 09:10:03;;;;;;;14.20;5.65;;;;;;;;;;5131069;27;20027;-72
2023/08/18 09:12:31;;;;;;;6.25;5.13;;;;;;;;;;5130752;27;20042;-73
2023/08/18 09:14:58;;;;;;;11.00;5.28;;;;;;;;;;5130975;27;20146;-72
2023/08/18 09:17:26;;;;;;;6.00;5.40;;;;;;;;;;5130785;27;20030;-72
2023/08/18 09:19:55;;;;;;;8.38;5.35;;;;;;;;;;5130950;27;20539;-71
2023/08/18 09:22:23;;;;;;;11.02;5.60;;;;;;;;;;5112669;27;20417;-70
2023/08/18 09:24:51;;;;;;;8.88;5.07;;;;;;;;;;5131103;27;20416;-72
2023/08/18 09:27:17;;;;;;;5.72;4.82;;;;;;;;;;5130589;27;20031;-73
2023/08/18 09:29:43;;;;;;;11.05;5.25;;;;;;;;;;5131253;27;20126;-71
2023/08/18 09:32:09;;;;;;;9.48;5.32;;;;;;;;;;5131130;27;20057;-73
2023/08/18 09:34:35;;;;;;;9.25;5.50;;;;;;;;;;5131060;27;20043;-72
2023/08/18 09:37:02;;;;;;;9.95;5.85;;;;;;;;;;5131142;27;20031;-74
2023/08/18 09:39:27;;;;;;;8.13;5.22;;;;;;;;;;5131208;27;20042;-72
2023/08/18 09:41:54;;;;;;;6.10;4.90;;;;;;;;;;5133353;27;20023;-73
2023/08/18 09:44:20;;;;;;;7.50;5.75;;;;;;;;;;5134006;27;20092;-72
2023/08/18 09:46:49;;;;;;;7.13;4.97;;;;;;;;;;5113554;27;20038;-71
2023/08/18 09:49:19;;;;;;;6.03;4.70;;;;;;;;;;5130995;27;20039;-71
2023/08/18 09:51:44;;;;;;;;;;;;;;;;;;5131545;27;20038;-72
2023/08/18 09:54:11;;;;;;;7.22;5.15;;;;;;;;;;5130758;27;19919;-71
2023/08/18 09:56:37;;;;;;;5.78;5.10;;;;;;;;;;5112175;27;20038;-72
2023/08/18 09:59:09;;;;;;;8.10;5.15;;;;;;;;;;5130751;27;20092;-73
2023/08/18 10:01:36;;;;;;;8.82;5.22;;;;;;;;;;5130493;27;20520;-73
2023/08/18 10:04:02;;;;;;;7.80;5.35;;;;;;;;;;5113208;28;20039;-73
2023/08/18 10:06:28;;;;;;;11.55;5.65;;;;;;;;;;5112275;27;20533;-72
2023/08/18 10:08:55;;;;;;;8.88;5.40;;;;;;;;;;5112209;27;20043;-73
2023/08/18 10:11:21;;;;;;;8.55;5.95;;;;;;;;;;5094815;27;20027;-72
2023/08/18 10:13:47;;;;;;;11.40;5.80;;;;;;;;;;5111940;27;20058;-72
2023/08/18 10:16:13;;;;;;;12.10;5.95;;;;;;;;;;5112573;28;20031;-71
2023/08/18 10:18:39;;;;;;;10.93;5.90;;;;;;;;;;5130821;27;20035;-72
2023/08/18 10:21:05;;;;;;;10.90;6.32;;;;;;;;;;5116101;27;20103;-71
2023/08/18 10:23:31;;;;;;;9.07;5.85;;;;;;;;;;5099215;27;20073;-71
2023/08/18 10:25:57;;;;;;;11.48;6.95;;;;;;;;;;5134221;27;20089;-72
2023/08/18 10:28:23;;;;;;;10.68;6.25;;;;;;;;;;5134224;27;20073;-72
2023/08/18 10:30:50;;;;;;;9.65;6.05;;;;;;;;;;5116159;27;20096;-71
2023/08/18 10:33:26;;;;;;;13.75;6.60;;;;;;;;;;5115694;27;20061;-72
2023/08/18 10:35:55;;;;;;;8.43;6.78;;;;;;;;;;5115749;27;20417;-70
2023/08/18 10:38:21;;;;;;;9.68;6.53;;;;;;;;;;5115520;27;20059;-71
2023/08/18 10:40:47;;;;;;;17.35;7.15;;;;;;;;;;5099191;27;20066;-71
2023/08/18 10:43:14;;;;;;;15.23;7.05;;;;;;;;;;5116178;27;20043;-72
2023/08/18 10:45:41;;;;;;;10.75;6.82;;;;;;;;;;5133629;27;20062;-72
2023/08/18 10:48:07;;;;;;;8.90;7.43;;;;;;;;;;5133733;27;20075;-72
2023/08/18 10:50:34;;;;;;;9.88;7.20;;;;;;;;;;5098131;27;20125;-72
2023/08/18 10:53:01;;;;;;;10.15;7.30;;;;;;;;;;5133578;27;20505;-71
2023/08/18 10:55:27;;;;;;;13.75;7.80;;;;;;;;;;5133228;27;20046;-72
2023/08/18 10:57:54;;;;;;;18.38;8.77;;;;;;;;;;5133502;27;20031;-71
2023/08/18 11:00:20;;;;;;;13.57;8.30;;;;;;;;;;5114969;27;20039;-72
2023/08/18 11:02:47;;;;;;;13.43;7.53;;;;;;;;;;5133808;27;20031;-72
2023/08/18 11:05:13;;;;;;;10.93;7.75;;;;;;;;;;5115151;27;20023;-72
2023/08/18 11:07:39;;;;;;;11.20;7.70;;;;;;;;;;5133029;27;20039;-72
2023/08/18 11:10:13;;;;;;;10.98;7.72;;;;;;;;;;5133357;27;20051;-72
2023/08/18 11:12:40;;;;;;;11.68;7.05;;;;;;;;;;5132892;27;20492;-72
2023/08/18 11:15:06;;;;;;;11.98;7.03;;;;;;;;;;5133051;27;20517;-71
2023/08/18 11:17:32;;;;;;;10.68;7.45;;;;;;;;;;5132923;27;20532;-72
2023/08/18 11:19:58;;;;;;;11.88;6.28;;;;;;;;;;5133253;27;20035;-71
2023/08/18 11:22:24;;;;;;;11.45;6.80;;;;;;;;;;5132893;27;20033;-72
2023/08/18 11:24:50;;;;;;;13.50;6.13;;;;;;;;;;5114829;27;20035;-72
2023/08/18 11:27:16;;;;;;;10.98;6.07;;;;;;;;;;5132779;27;20422;-69
2023/08/18 11:29:42;;;;;;;24.33;6.82;;;;;;;;;;5114995;27;20085;-72
2023/08/18 11:32:08;;;;;;;9.65;6.22;;;;;;;;;;5134469;27;20038;-72
2023/08/18 11:34:34;;;;;;;11.50;6.15;;;;;;;;;;5114408;27;20046;-72
2023/08/18 11:37:04;;;;;;;9.45;6.18;;;;;;;;;;5132769;27;20121;-73
2023/08/18 11:39:30;;;;;;;7.13;6.03;;;;;;;;;;5114231;27;20112;-71
2023/08/18 11:41:56;;;;;;;9.77;6.05;;;;;;;;;;5132673;27;20069;-72
2023/08/18 11:44:22;;;;;;;12.15;6.18;;;;;;;;;;5114064;27;20034;-73
2023/08/18 11:46:49;;;;;;;7.35;6.20;;;;;;;;;;5114195;27;20038;-72
2023/08/18 11:49:16;;;;;;;14.73;6.85;;;;;;;;;;5132730;27;20074;-71
2023/08/18 11:51:57;;;;;;;8.27;6.30;;;;;;;;;;5132074;27;20041;-72
2023/08/18 11:54:27;;;;;;;13.48;5.93;;;;;;;;;;5113973;27;20035;-73
2023/08/18 11:56:57;;;;;;;12.10;7.22;;;;;;;;;;5114052;27;20121;-71
2023/08/18 11:59:23;;;;;;;;;;;;;;;;;;5114294;27;20081;-71
2023/08/18 12:01:55;;;;;;;11.50;7.10;;;;;;;;;;5132531;27;19955;-71
2023/08/18 12:04:28;;;;;;;10.95;7.60;;;;;;;;;;5114302;27;20039;-71
2023/08/18 12:06:54;;;;;;;16.88;7.97;;;;;;;;;;5132192;27;20039;-72
2023/08/18 12:09:20;;;;;;;11.40;8.15;;;;;;;;;;5132388;27;20511;-72
2023/08/18 12:11:46;;;;;;;24.88;8.20;;;;;;;;;;5131825;27;20117;-72
2023/08/18 12:14:12;;;;;;;11.40;8.05;;;;;;;;;;5132039;27;20086;-70
2023/08/18 12:16:38;;;;;;;12.45;7.25;;;;;;;;;;5131957;27;20028;-73
2023/08/18 12:19:04;;;;;;;11.90;7.50;;;;;;;;;;5132054;27;20039;-71
2023/08/18 12:21:33;;;;;;;15.63;7.38;;;;;;;;;;5131938;27;20076;-73
2023/08/18 12:24:03;;;;;;;10.50;7.30;;;;;;;;;;5113651;27;20035;-71
2023/08/18 12:26:30;;;;;;;8.73;7.53;;;;;;;;;;5113496;27;20382;-73
2023/08/18 12:28:56;;;;;;;8.95;7.20;;;;;;;;;;5131848;27;20115;-72
2023/08/18 12:31:24;;;;;;;11.20;6.75;;;;;;;;;;5131908;27;20481;-72
2023/08/18 12:33:50;;;;;;;11.48;7.32;;;;;;;;;;5131491;27;20497;-71
2023/08/18 12:36:16;;;;;;;10.07;8.13;;;;;;;;;;5131815;27;20339;-72
2023/08/18 12:38:42;;;;;;;16.20;7.70;;;;;;;;;;5131494;27;20677;-69
2023/08/18 12:41:08;;;;;;;10.25;7.40;;;;;;;;;;5113259;27;20342;-72
2023/08/18 12:43:36;;;;;;;9.35;6.32;;;;;;;;;;5130705;27;20401;-72
2023/08/18 12:46:02;;;;;;;7.75;6.18;;;;;;;;;;5113734;27;20527;-71
2023/08/18 12:48:28;;;;;;;12.68;6.05;;;;;;;;;;5114353;27;20095;-72
2023/08/18 12:50:54;;;;;;;10.48;6.82;;;;;;;;;;5115769;27;20070;-71
2023/08/18 12:53:20;;;;;;;10.85;6.18;;;;;;;;;;5114520;27;20027;-71
2023/08/18 12:55:46;;;;;;;11.90;6.60;;;;;;;;;;5131650;27;20565;-72
2023/08/18 12:58:12;;;;;;;21.35;8.98;;;;;;;;;;5131256;27;20023;-71
2023/08/18 13:00:38;;;;;;;13.35;7.10;;;;;;;;;;5112994;27;20031;-73
2023/08/18 13:03:04;;;;;;;16.35;6.93;;;;;;;;;;5131184;27;20024;-72
2023/08/18 13:05:30;;;;;;;13.45;6.72;;;;;;;;;;5131041;27;20031;-73
2023/08/18 13:07:57;;;;;;;14.35;7.40;;;;;;;;;;5112899;27;20042;-71
2023/08/18 13:10:23;;;;;;;7.03;6.30;;;;;;;;;;5095893;27;20042;-71
2023/08/18 13:12:49;;;;;;;12.63;6.18;;;;;;;;;;5130612;27;20035;-72
2023/08/18 13:15:15;;;;;;;9.32;5.72;;;;;;;;;;5131159;27;20518;-72
2023/08/18 13:17:41;;;;;;;9.93;5.82;;;;;;;;;;5130762;27;20501;-72
2023/08/18 13:20:08;;;;;;;16.17;6.43;;;;;;;;;;5112807;27;20035;-71
2023/08/18 13:22:35;;;;;;;7.57;5.38;;;;;;;;;;5130641;27;20129;-71
2023/08/18 13:25:08;;;;;;;8.57;5.72;;;;;;;;;;5130999;27;20035;-70
2023/08/18 13:27:34;;;;;;;12.90;5.70;;;;;;;;;;5112422;27;20122;-71
2023/08/18 13:30:00;;;;;;;7.45;5.60;;;;;;;;;;5112378;27;20130;-72
2023/08/18 13:32:30;;;;;;;6.30;5.68;;;;;;;;;;5130709;27;20547;-72
2023/08/18 13:34:56;;;;;;;7.40;5.90;;;;;;;;;;5112571;27;20047;-72
2023/08/18 13:37:22;;;;;;;9.70;5.53;;;;;;;;;;5130824;27;20027;-72
2023/08/18 13:39:48;;;;;;;6.28;5.63;;;;;;;;;;5130570;27;20035;-71
2023/08/18 13:42:14;;;;;;;7.25;5.60;;;;;;;;;;5130855;27;20031;-72
2023/08/18 13:44:40;;;;;;;15.93;6.07;;;;;;;;;;5130681;27;20095;-72
2023/08/18 13:47:06;;;;;;;9.65;5.50;;;;;;;;;;5130897;27;20039;-71
2023/08/18 13:49:32;;;;;;;8.18;5.57;;;;;;;;;;5130852;27;20039;-72
2023/08/18 13:51:58;;;;;;;6.85;5.85;;;;;;;;;;5131234;27;20481;-73
2023/08/18 13:54:24;;;;;;;11.82;6.15;;;;;;;;;;5133228;27;20095;-72
2023/08/18 13:56:50;;;;;;;10.77;6.15;;;;;;;;;;5134676;27;20035;-70
2023/08/18 13:59:16;;;;;;;7.72;5.70;;;;;;;;;;5134894;27;20035;-72
2023/08/18 14:01:42;;;;;;;7.35;6.18;;;;;;;;;;5134420;27;20035;-72
2023/08/18 14:04:08;;;;;;;18.92;6.32;;;;;;;;;;5117185;27;20095;-73
2023/08/18 14:06:34;;;;;;;7.43;5.78;;;;;;;;;;5135877;27;20113;-74
2023/08/18 14:09:00;;;;;;;6.95;6.07;;;;;;;;;;5135999;27;20038;-71
2023/08/18 14:11:26;;;;;;;9.27;5.47;;;;;;;;;;5136169;27;20039;-72
2023/08/18 14:13:52;;;;;;;8.85;5.93;;;;;;;;;;5135219;27;20047;-72
2023/08/18 14:16:18;;;;;;;6.38;5.78;;;;;;;;;;5135761;27;20416;-72
2023/08/18 14:18:44;;;;;;;11.85;5.97;;;;;;;;;;5116958;27;20027;-72
2023/08/18 14:21:10;;;;;;;5.97;4.75;;;;;;;;;;5135532;27;20112;-71
2023/08/18 14:23:36;;;;;;;6.30;4.90;;;;;;;;;;5134530;27;20075;-72